Terminal Aerodrome Forecast
Issued by NWS

Home | Current Version | Previous Version | Text Only | Print | Product List | Glossary On
Versions: 1 2 3 4 5 6 7 8 9 10 11 12 13 14 15 16 17
000
FTAK31 PAJN 180500
TAFAKT
TAF
PAKT 180535Z 1806/1906 13014KT P6SM VCSH SCT015 BKN025 OVC035
      TEMPO 1806/1810 13008KT 5SM -RA BR BKN015 OVC025
     FM181500 14007KT P6SM VCSH FEW005 BKN035 OVC050
     FM181900 14010G20KT P6SM VCSH BKN040 OVC070
      AMD LTD TO CLD VIS AND WIND 1806/1815=

USA.gov is the U.S. government's official web portal to all federal, state and local government web resources and services.